Latest Weather Observations for Thevenard Island

IDW60801

Issued at 1:13 pm WST Friday 16 November 2018 (issued every 10 minutes, with the page automatically refreshed every 10 minutes)

About weather observations | Map of weather stations | Latest weather observations for WA | Other Formats
Station Details ID: 005084 Name: THEVENARD ISLAND Lat: -21.46 Lon: 115.02 Height: 5.0 m
Data from the previous 72 hours. | See also: Recent months at Thevenard Island
Date/Time
WST
Temp
°C
App
Temp
°C
Dew
Point
°C
Rel
Hum
%
Delta-T
°C
Wind Press
QNH
hPa
Press
MSL
hPa
Rain since
9am
mm
Dir  Spd
km/h
Gust
km/h
Spd
kts
Gust
kts
16/01:00pm 31.7 32.8 17.2 42 9.2 ENE 7 9 4 5 1011.0 - 0.6
16/12:30pm 31.2 29.8 17.1 42 8.9 E 20 30 11 16 1011.2 - 0.6
16/12:00pm 29.4 28.9 17.9 50 7.3 E 17 20 9 11 1012.0 1012.0 0.6
16/11:30am 28.1 29.2 17.9 54 6.5 SSW 9 17 5 9 1013.6 - 0.6
16/11:00am 27.6 27.3 19.1 59 5.5 E 19 24 10 13 1013.6 - 0.4
16/10:30am 28.6 29.1 20.1 60 5.6 ESE 17 20 9 11 1013.2 - 0.0
16/10:00am 29.1 27.3 17.9 50 7.1 SE 24 30 13 16 1013.8 - 0.0
16/09:30am 29.7 28.7 16.5 45 8.2 E 17 22 9 12 1015.0 - 0.0
16/09:00am 26.5 26.7 20.6 70 3.9 NE 20 32 11 17 1015.5 1015.5 0.0
16/08:30am 26.0 27.3 22.3 80 2.5 SSW 19 26 10 14 1015.0 - 0.0
16/08:00am 25.5 27.7 23.2 87 1.6 S 17 20 9 11 1014.0 - 0.0
16/07:30am 25.4 26.9 22.7 85 1.8 WSW 19 24 10 13 1015.2 - 0.0
16/07:00am 25.7 26.3 22.8 84 2.0 SW 24 33 13 18 1014.9 - 0.0
16/06:30am 25.6 27.9 23.5 88 1.4 SW 17 20 9 11 1014.1 - 0.0
16/06:00am 25.4 27.7 22.7 85 1.8 SSE 15 17 8 9 1012.8 1012.8 0.0
16/05:30am 25.1 27.7 23.9 93 0.8 S 17 20 9 11 1012.6 - 0.0
16/05:00am 25.0 28.5 24.8 99 0.1 SSE 15 20 8 11 1012.9 - 0.0
16/04:30am 24.9 28.3 24.7 99 0.1 S 15 20 8 11 1012.5 - 0.0
16/04:00am 24.7 28.9 24.7 100 0.0 S 11 17 6 9 1012.8 - 0.0
16/03:30am 24.7 27.2 24.7 100 0.0 S 20 24 11 13 1012.6 - 0.0
16/03:00am 24.5 28.2 24.5 100 0.0 SSW 13 17 7 9 1012.8 1012.8 0.0
16/02:30am 24.3 28.2 24.3 100 0.0 W 11 15 6 8 1013.2 - 0.0
16/02:00am 24.4 29.7 24.4 100 0.0 WNW 4 13 2 7 1013.8 - 0.0
16/01:30am 24.6 28.3 24.6 100 0.0 SW 13 17 7 9 1013.4 - 0.0
16/01:00am 24.5 28.2 24.5 100 0.0 S 13 17 7 9 1012.8 - 0.0
16/12:30am 24.5 28.8 24.3 99 0.1 SSW 9 13 5 7 1013.4 - 0.0
16/12:00am 24.6 28.5 24.3 98 0.2 W 11 20 6 11 1014.0 1014.0 0.0
 
Date/Time
WST
Temp
°C
App
Temp
°C
Dew
Point
°C
Rel
Hum
%
Delta-T
°C
Wind Press
QNH
hPa
Press
MSL
hPa
Rain since
9am
mm
Dir  Spd
km/h
Gust
km/h
Spd
kts
Gust
kts
15/11:30pm 24.5 28.1 23.8 96 0.5 W 11 19 6 10 1014.1 - 0.0
15/11:00pm 24.6 27.9 23.9 96 0.5 NW 13 20 7 11 1014.7 - 0.0
15/10:30pm 25.0 26.6 24.5 97 0.3 WSW 24 32 13 17 1013.8 - 0.0
15/10:00pm 24.9 26.2 24.7 99 0.1 WSW 26 32 14 17 1013.7 - 0.0
15/09:30pm 24.7 26.7 24.5 99 0.1 WSW 22 30 12 16 1013.6 - 0.0
15/09:00pm 24.6 27.2 24.6 100 0.0 W 19 28 10 15 1014.1 1014.1 0.0
15/08:30pm 24.5 26.9 24.3 99 0.1 WSW 19 24 10 13 1013.8 - 0.0
15/08:00pm 24.5 26.1 24.5 100 0.0 W 24 32 13 17 1013.9 - 0.0
15/07:30pm 24.3 25.4 24.3 100 0.0 W 26 37 14 20 1013.9 - 0.0
15/07:00pm 24.1 25.1 24.1 100 0.0 W 26 35 14 19 1013.9 - 0.0
15/06:30pm 24.3 24.6 24.3 100 0.0 W 30 43 16 23 1013.4 - 0.0
15/06:00pm 25.2 26.0 25.0 99 0.1 W 30 46 16 25 1013.0 1013.0 0.0
15/05:30pm 25.7 28.2 24.8 95 0.6 W 20 30 11 16 1012.1 - 0.0
15/05:00pm 26.1 28.7 24.9 93 0.8 WSW 20 26 11 14 1011.6 - 0.0
15/04:30pm 26.5 28.8 24.5 89 1.4 W 20 26 11 14 1011.5 - 0.0
15/04:00pm 26.1 28.6 24.7 92 1.0 WSW 20 26 11 14 1010.9 - 0.0
15/03:30pm 27.3 28.0 23.7 81 2.5 W 26 35 14 19 1011.5 - 0.0
15/03:00pm 29.1 29.7 21.3 62 5.2 W 20 33 11 18 1012.2 1012.2 0.0
15/02:30pm 27.4 29.5 21.7 71 3.8 N 13 17 7 9 1011.9 - 0.0
15/02:00pm 26.2 28.8 23.9 87 1.6 NNW 17 20 9 11 1012.4 - 0.0
15/01:30pm 26.6 28.5 25.0 91 1.1 N 24 30 13 16 1012.9 - 0.0
15/01:00pm 26.5 27.2 24.3 88 1.5 N 28 39 15 21 1013.3 - 0.0
15/12:30pm 27.6 27.7 24.0 81 2.5 N 30 39 16 21 1013.6 - 0.0
15/12:14pm 27.5 28.1 24.1 82 2.3 N 28 39 15 21 1013.6 - 0.0
15/12:00pm 28.4 30.3 21.4 66 4.7 N 13 17 7 9 1013.1 1013.1 0.0
15/11:30am 28.2 29.9 21.0 65 4.8 N 13 17 7 9 1013.4 - 0.0
15/11:00am 27.7 29.3 20.0 63 5.0 NNW 11 15 6 8 1013.8 - 0.0
15/10:30am 27.6 29.9 20.7 66 4.6 WSW 9 13 5 7 1014.0 - 0.0
15/10:00am 26.3 28.9 22.6 80 2.5 SW 13 17 7 9 1014.1 - 0.0
15/09:30am 26.6 30.4 24.1 86 1.7 SW 11 15 6 8 1014.2 - 0.0
15/09:00am 26.0 30.0 25.1 95 0.6 SW 13 15 7 8 1014.3 1014.3 0.2
15/08:30am 25.3 29.7 25.1 99 0.1 WSW 11 15 6 8 1014.5 - 0.2
15/08:00am 24.7 28.5 24.7 100 0.0 WSW 13 17 7 9 1014.3 - 0.2
15/07:30am 24.4 28.0 24.4 100 0.0 WSW 13 15 7 8 1014.0 - 0.2
15/07:00am 23.9 - 24.1 - - W 11 15 6 8 1013.7 - 0.2
15/06:30am 22.9 - 23.2 - - WNW 9 11 5 6 1013.6 - 0.2
15/06:00am 22.1 - 22.4 - - WNW 9 11 5 6 1013.1 1013.1 0.2
15/05:30am 21.7 - 21.9 - - NW 11 13 6 7 1013.3 - 0.2
15/05:00am 21.6 - 21.8 - - WNW 7 11 4 6 1012.8 - 0.2
15/04:30am 21.9 - 22.1 - - WSW 9 11 5 6 1012.6 - 0.2
15/04:00am 22.3 - 22.5 - - W 7 11 4 6 1012.3 - 0.2
15/03:30am 22.9 - 23.1 - - SW 13 17 7 9 1012.0 - 0.2
15/03:00am 23.0 - 23.2 - - W 11 15 6 8 1012.0 1012.0 0.2
15/02:30am 23.1 - 23.3 - - W 11 17 6 9 1011.6 - 0.2
15/02:00am 23.2 - 23.4 - - W 17 22 9 12 1011.7 - 0.2
15/01:30am 23.5 - 23.7 - - W 15 22 8 12 1011.5 - 0.2
15/01:00am 23.5 - 23.7 - - W 15 20 8 11 1011.4 - 0.2
15/12:30am 23.6 - 23.8 - - W 15 20 8 11 1011.5 - 0.2
15/12:00am 23.3 - 23.5 - - W 11 17 6 9 1011.6 1011.6 0.2
 
Date/Time
WST
Temp
°C
App
Temp
°C
Dew
Point
°C
Rel
Hum
%
Delta-T
°C
Wind Press
QNH
hPa
Press
MSL
hPa
Rain since
9am
mm
Dir  Spd
km/h
Gust
km/h
Spd
kts
Gust
kts
14/11:30pm 23.4 - 23.6 - - W 13 17 7 9 1011.8 - 0.2
14/11:00pm 23.0 - 23.2 - - WNW 11 13 6 7 1012.0 - 0.2
14/10:30pm 23.0 - 23.2 - - WNW 9 13 5 7 1012.2 - 0.2
14/10:00pm 23.3 - 23.5 - - WNW 9 11 5 6 1012.3 - 0.2
14/09:30pm 23.6 - 23.8 - - WNW 11 15 6 8 1012.3 - 0.2
14/09:00pm 23.7 27.3 23.7 100 0.0 WNW 11 15 6 8 1012.2 1012.2 0.2
14/08:30pm 23.9 28.0 23.9 100 0.0 NW 9 13 5 7 1012.1 - 0.2
14/08:00pm 24.1 27.5 24.1 100 0.0 WNW 13 17 7 9 1012.0 - 0.2
14/07:30pm 24.2 27.7 24.2 100 0.0 WNW 13 20 7 11 1011.8 - 0.2
14/07:00pm 24.4 27.6 24.4 100 0.0 NW 15 20 8 11 1011.2 - 0.2
14/06:30pm 24.7 27.2 24.5 99 0.1 NW 19 24 10 13 1010.8 - 0.2
14/06:00pm 25.3 28.1 25.0 98 0.2 NW 19 24 10 13 1010.6 1010.6 0.2
14/05:30pm 25.7 28.5 25.2 97 0.3 NNW 20 26 11 14 1010.4 - 0.2
14/05:00pm 26.0 28.7 24.8 93 0.8 NNW 19 24 10 13 1010.1 - 0.2
14/04:30pm 26.2 28.9 25.0 93 0.8 NNW 20 26 11 14 1010.0 - 0.2
14/04:00pm 26.5 29.0 24.7 90 1.2 N 20 24 11 13 1009.9 - 0.2
14/03:30pm 26.5 28.7 24.2 87 1.6 NNW 20 24 11 13 1010.0 - 0.2
14/03:00pm 26.5 28.3 24.2 87 1.6 N 22 26 12 14 1010.0 1010.0 0.2
14/02:30pm 26.5 27.9 24.2 87 1.6 NNW 24 28 13 15 1010.3 - 0.2
14/02:00pm 26.5 27.3 23.2 82 2.2 N 24 28 13 15 1010.5 - 0.2
14/01:30pm 26.4 27.7 23.3 83 2.1 N 22 28 12 15 1010.7 - 0.2
14/01:00pm 27.4 28.5 23.6 80 2.6 N 24 28 13 15 1010.9 - 0.2
14/12:30pm 26.8 27.9 23.1 80 2.5 N 22 28 12 15 1011.0 - 0.2
14/12:00pm 26.4 27.7 23.3 83 2.1 N 22 26 12 14 1011.3 1011.3 0.2
14/11:30am 26.0 26.9 23.3 85 1.8 N 24 28 13 15 1011.4 - 0.2
14/11:00am 27.4 29.2 23.6 80 2.6 N 20 24 11 13 1011.3 - 0.2
14/10:30am 26.1 27.4 22.6 81 2.4 NNE 20 24 11 13 1011.6 - 0.2
14/10:00am 26.8 28.7 23.5 82 2.3 NNE 19 22 10 12 1011.5 - 0.2
14/09:30am 25.8 27.9 23.1 85 1.8 NNE 17 22 9 12 1011.7 - 0.0
14/09:00am 25.4 27.7 23.5 89 1.3 NNE 17 20 9 11 1011.7 1011.7 0.0
14/08:30am 24.9 28.3 24.6 98 0.2 NNE 15 19 8 10 1011.5 - 0.0
14/08:00am 24.6 28.0 24.6 100 0.0 N 15 19 8 10 1011.2 - 0.0
14/07:30am 24.0 27.0 24.0 100 0.0 N 15 20 8 11 1010.8 - 0.0
14/07:00am 23.6 26.0 23.6 100 0.0 N 17 20 9 11 1010.4 - 0.0
14/06:30am 23.2 - 23.4 - - N 15 19 8 10 1010.1 - 0.0
14/06:00am 22.9 - 23.1 - - N 15 17 8 9 1009.6 1009.6 0.0
14/05:30am 22.7 - 22.9 - - N 13 17 7 9 1009.4 - 0.0
14/05:00am 22.5 - 22.7 - - N 13 15 7 8 1009.1 - 0.0
14/04:30am 22.5 - 22.7 - - NNW 13 17 7 9 1009.1 - 0.0
14/04:00am 22.7 - 22.9 - - N 15 19 8 10 1008.8 - 0.0
14/03:30am 22.5 - 22.7 - - NNW 15 19 8 10 1008.6 - 0.0
14/03:00am 22.6 - 22.8 - - NNW 17 22 9 12 1008.5 1008.5 0.0
14/02:30am 22.6 - 22.8 - - NNW 17 20 9 11 1008.5 - 0.0
14/02:00am 22.9 - 23.1 - - NNW 20 24 11 13 1008.5 - 0.0
14/01:30am 23.0 - 23.2 - - NNW 20 26 11 14 1008.6 - 0.0
14/01:00am 22.9 24.9 22.9 100 0.0 N 17 22 9 12 1008.7 - 0.0
14/12:30am 23.0 24.7 23.0 100 0.0 N 19 24 10 13 1008.9 - 0.0
14/12:00am 23.0 25.0 23.0 100 0.0 N 17 22 9 12 1009.3 1009.3 0.0
 
Date/Time
WST
Temp
°C
App
Temp
°C
Dew
Point
°C
Rel
Hum
%
Delta-T
°C
Wind Press
QNH
hPa
Press
MSL
hPa
Rain since
9am
mm
Dir  Spd
km/h
Gust
km/h
Spd
kts
Gust
kts
13/11:30pm 23.0 25.4 23.0 100 0.0 N 15 20 8 11 1009.5 - 0.0
13/11:00pm 23.1 24.8 23.1 100 0.0 N 19 22 10 12 1009.7 - 0.0
13/10:30pm 23.1 25.6 23.1 100 0.0 N 15 19 8 10 1009.8 - 0.0
13/10:00pm 22.9 25.6 22.9 100 0.0 NNW 13 17 7 9 1009.9 - 0.0
13/09:30pm 22.8 25.9 22.8 100 0.0 NNW 11 13 6 7 1010.0 - 0.0
13/09:00pm 22.9 26.0 22.9 100 0.0 NW 11 15 6 8 1009.9 1009.9 0.0
13/08:30pm 23.2 26.1 23.2 100 0.0 NW 13 17 7 9 1009.8 - 0.0
13/08:00pm 23.6 26.0 23.6 100 0.0 NW 17 20 9 11 1009.5 - 0.0
13/07:30pm 23.9 26.0 23.7 99 0.1 NNW 19 26 10 14 1009.2 - 0.0
13/07:00pm 24.1 26.1 23.9 99 0.1 N 20 26 11 14 1008.5 - 0.0
13/06:30pm 24.4 25.8 24.2 99 0.1 N 24 32 13 17 1008.1 - 0.0
13/06:00pm 25.0 25.7 23.6 92 1.0 N 26 33 14 18 1007.8 1007.8 0.0
13/05:30pm 25.6 26.2 23.5 88 1.4 N 26 33 14 18 1007.6 - 0.0
13/05:00pm 26.0 27.1 23.7 87 1.6 N 24 32 13 17 1007.4 - 0.0
13/04:30pm 26.4 27.6 23.9 86 1.7 N 24 32 13 17 1007.3 - 0.0
13/04:00pm 26.4 26.9 23.9 86 1.7 N 28 33 15 18 1007.3 - 0.0
13/03:30pm 26.9 28.2 23.4 81 2.4 N 22 30 12 16 1007.3 - 0.0
13/03:00pm 27.4 28.6 23.2 78 2.9 N 22 28 12 15 1007.6 1007.6 0.0
13/02:30pm 28.1 29.1 23.5 76 3.2 NNE 24 32 13 17 1007.8 - 0.0
13/02:00pm 27.9 29.0 23.7 78 2.9 NNE 24 30 13 16 1008.0 - 0.0
13/01:30pm 27.9 28.9 23.5 77 3.0 NNE 24 32 13 17 1008.1 - 0.0

Other Formats:

Comma delimited format used in spreadsheet applications
http://www.bom.gov.au/fwo/IDW60801/IDW60801.94303.axf

JavaScript Object Notation format (JSON) in row-major order
http://www.bom.gov.au/fwo/IDW60801/IDW60801.94303.json